sensor_id;sensor_type;location;lat;lon;timestamp;temperature;humidity
26655;DHT22;14278;50.784;4.630;2024-03-22T00:06:26;13.80;99.90
26655;DHT22;14278;50.784;4.630;2024-03-22T00:22:45;13.60;99.90
26655;DHT22;14278;50.784;4.630;2024-03-22T00:25:16;13.80;99.90
26655;DHT22;14278;50.784;4.630;2024-03-22T00:27:45;13.70;99.90
26655;DHT22;14278;50.784;4.630;2024-03-22T00:35:28;13.60;99.90
26655;DHT22;14278;50.784;4.630;2024-03-22T00:53:16;13.60;99.90
26655;DHT22;14278;50.784;4.630;2024-03-22T00:56:04;13.90;99.90
26655;DHT22;14278;50.784;4.630;2024-03-22T01:06:45;13.60;99.90
26655;DHT22;14278;50.784;4.630;2024-03-22T01:12:09;13.50;99.90
26655;DHT22;14278;50.784;4.630;2024-03-22T01:21:33;13.70;99.90
26655;DHT22;14278;50.784;4.630;2024-03-22T01:46:52;13.60;99.90
26655;DHT22;14278;50.784;4.630;2024-03-22T02:03:14;13.50;99.90
26655;DHT22;14278;50.784;4.630;2024-03-22T02:05:58;13.40;99.90
26655;DHT22;14278;50.784;4.630;2024-03-22T02:25:35;13.70;99.90
26655;DHT22;14278;50.784;4.630;2024-03-22T02:28:12;13.40;99.90
26655;DHT22;14278;50.784;4.630;2024-03-22T02:30:39;13.10;99.90
26655;DHT22;14278;50.784;4.630;2024-03-22T02:48:05;12.70;99.90
26655;DHT22;14278;50.784;4.630;2024-03-22T03:10:25;13.10;99.90
26655;DHT22;14278;50.784;4.630;2024-03-22T03:21:00;13.00;99.90
26655;DHT22;14278;50.784;4.630;2024-03-22T03:23:35;13.00;99.90
26655;DHT22;14278;50.784;4.630;2024-03-22T03:26:04;13.00;99.90
26655;DHT22;14278;50.784;4.630;2024-03-22T03:29:03;12.70;99.90
26655;DHT22;14278;50.784;4.630;2024-03-22T03:31:33;13.00;99.90
26655;DHT22;14278;50.784;4.630;2024-03-22T03:37:14;13.10;99.90
26655;DHT22;14278;50.784;4.630;2024-03-22T03:42:20;12.70;99.90
26655;DHT22;14278;50.784;4.630;2024-03-22T03:44:48;12.70;99.90
26655;DHT22;14278;50.784;4.630;2024-03-22T03:47:35;12.80;99.90
26655;DHT22;14278;50.784;4.630;2024-03-22T03:53:25;13.00;99.90
26655;DHT22;14278;50.784;4.630;2024-03-22T04:04:04;12.80;99.90
26655;DHT22;14278;50.784;4.630;2024-03-22T04:06:33;13.20;99.90
26655;DHT22;14278;50.784;4.630;2024-03-22T04:09:36;13.00;99.90
26655;DHT22;14278;50.784;4.630;2024-03-22T05:34:58;13.10;99.90
26655;DHT22;14278;50.784;4.630;2024-03-22T05:59:40;12.80;99.90
26655;DHT22;14278;50.784;4.630;2024-03-22T06:12:27;12.50;99.90
26655;DHT22;14278;50.784;4.630;2024-03-22T06:21:23;12.70;99.90
26655;DHT22;14278;50.784;4.630;2024-03-22T06:23:56;12.80;99.90
26655;DHT22;14278;50.784;4.630;2024-03-22T06:26:21;12.70;99.90
26655;DHT22;14278;50.784;4.630;2024-03-22T06:32:30;12.50;99.90
26655;DHT22;14278;50.784;4.630;2024-03-22T06:34:56;12.50;99.90
26655;DHT22;14278;50.784;4.630;2024-03-22T06:37:22;12.80;99.90
26655;DHT22;14278;50.784;4.630;2024-03-22T06:39:48;12.80;99.90
26655;DHT22;14278;50.784;4.630;2024-03-22T06:42:27;12.70;99.90
26655;DHT22;14278;50.784;4.630;2024-03-22T06:44:57;12.90;99.90
26655;DHT22;14278;50.784;4.630;2024-03-22T06:47:36;12.60;99.90
26655;DHT22;14278;50.784;4.630;2024-03-22T06:50:01;12.70;99.90
26655;DHT22;14278;50.784;4.630;2024-03-22T06:52:27;12.50;99.90
26655;DHT22;14278;50.784;4.630;2024-03-22T06:55:02;12.70;99.90
26655;DHT22;14278;50.784;4.630;2024-03-22T06:57:29;12.40;99.90
26655;DHT22;14278;50.784;4.630;2024-03-22T07:02:30;12.20;99.90
26655;DHT22;14278;50.784;4.630;2024-03-22T07:04:55;12.20;99.90
26655;DHT22;14278;50.784;4.630;2024-03-22T07:07:21;12.30;99.90
26655;DHT22;14278;50.784;4.630;2024-03-22T07:09:50;12.30;99.90
26655;DHT22;14278;50.784;4.630;2024-03-22T07:12:16;12.50;99.90
26655;DHT22;14278;50.784;4.630;2024-03-22T07:14:42;12.50;99.90
26655;DHT22;14278;50.784;4.630;2024-03-22T07:19:43;12.50;99.90
26655;DHT22;14278;50.784;4.630;2024-03-22T07:22:09;12.50;99.90
26655;DHT22;14278;50.784;4.630;2024-03-22T07:24:35;12.30;99.90
26655;DHT22;14278;50.784;4.630;2024-03-22T07:27:01;12.60;99.90
26655;DHT22;14278;50.784;4.630;2024-03-22T07:29:27;12.80;99.90
26655;DHT22;14278;50.784;4.630;2024-03-22T07:32:08;12.70;99.90
26655;DHT22;14278;50.784;4.630;2024-03-22T07:34:35;12.80;99.90
26655;DHT22;14278;50.784;4.630;2024-03-22T07:37:01;12.40;99.90
26655;DHT22;14278;50.784;4.630;2024-03-22T07:39:27;12.50;99.90
26655;DHT22;14278;50.784;4.630;2024-03-22T07:45:12;12.70;99.90
26655;DHT22;14278;50.784;4.630;2024-03-22T07:47:37;12.60;99.90
26655;DHT22;14278;50.784;4.630;2024-03-22T07:50:04;12.50;99.90
26655;DHT22;14278;50.784;4.630;2024-03-22T07:52:30;12.30;99.90
26655;DHT22;14278;50.784;4.630;2024-03-22T07:54:55;12.40;99.90
26655;DHT22;14278;50.784;4.630;2024-03-22T07:57:22;12.40;99.90
26655;DHT22;14278;50.784;4.630;2024-03-22T07:59:49;12.60;99.90
26655;DHT22;14278;50.784;4.630;2024-03-22T08:02:15;13.10;99.90
26655;DHT22;14278;50.784;4.630;2024-03-22T08:04:41;13.10;99.90
26655;DHT22;14278;50.784;4.630;2024-03-22T08:07:06;13.10;99.90
26655;DHT22;14278;50.784;4.630;2024-03-22T08:09:32;12.90;99.90
26655;DHT22;14278;50.784;4.630;2024-03-22T08:11:58;13.00;99.90
26655;DHT22;14278;50.784;4.630;2024-03-22T08:14:23;12.80;99.90
26655;DHT22;14278;50.784;4.630;2024-03-22T08:19:40;12.90;99.90
26655;DHT22;14278;50.784;4.630;2024-03-22T08:22:35;13.20;99.90
26655;DHT22;14278;50.784;4.630;2024-03-22T08:25:05;13.60;99.90
26655;DHT22;14278;50.784;4.630;2024-03-22T08:30:07;13.50;99.90
26655;DHT22;14278;50.784;4.630;2024-03-22T08:32:32;13.00;99.90
26655;DHT22;14278;50.784;4.630;2024-03-22T08:35:04;12.90;99.90
26655;DHT22;14278;50.784;4.630;2024-03-22T08:37:31;13.00;99.90
26655;DHT22;14278;50.784;4.630;2024-03-22T08:39:57;12.80;99.90
26655;DHT22;14278;50.784;4.630;2024-03-22T08:42:24;12.80;99.90
26655;DHT22;14278;50.784;4.630;2024-03-22T08:44:50;13.00;99.90
26655;DHT22;14278;50.784;4.630;2024-03-22T08:55:07;12.80;99.90
26655;DHT22;14278;50.784;4.630;2024-03-22T09:00:04;13.10;99.90
26655;DHT22;14278;50.784;4.630;2024-03-22T09:02:33;13.40;99.90
26655;DHT22;14278;50.784;4.630;2024-03-22T09:07:35;13.70;99.90
26655;DHT22;14278;50.784;4.630;2024-03-22T09:10:02;13.80;99.90
26655;DHT22;14278;50.784;4.630;2024-03-22T09:12:38;13.80;99.90
26655;DHT22;14278;50.784;4.630;2024-03-22T09:15:07;13.60;99.90
26655;DHT22;14278;50.784;4.630;2024-03-22T09:17:39;13.20;99.90
26655;DHT22;14278;50.784;4.630;2024-03-22T09:20:25;13.30;99.90
26655;DHT22;14278;50.784;4.630;2024-03-22T09:22:55;13.20;99.90
26655;DHT22;14278;50.784;4.630;2024-03-22T09:25:20;13.20;99.90
26655;DHT22;14278;50.784;4.630;2024-03-22T09:27:46;13.20;99.90
26655;DHT22;14278;50.784;4.630;2024-03-22T09:30:12;13.50;99.90
26655;DHT22;14278;50.784;4.630;2024-03-22T09:32:38;13.80;99.90
26655;DHT22;14278;50.784;4.630;2024-03-22T09:35:14;14.50;99.90
26655;DHT22;14278;50.784;4.630;2024-03-22T09:37:41;14.50;99.90
26655;DHT22;14278;50.784;4.630;2024-03-22T09:42:38;14.40;99.90
26655;DHT22;14278;50.784;4.630;2024-03-22T09:45:11;14.50;99.90
26655;DHT22;14278;50.784;4.630;2024-03-22T09:50:16;14.00;99.90
26655;DHT22;14278;50.784;4.630;2024-03-22T09:52:43;14.20;99.90
26655;DHT22;14278;50.784;4.630;2024-03-22T09:55:15;14.50;99.90
26655;DHT22;14278;50.784;4.630;2024-03-22T09:57:47;14.60;99.90
26655;DHT22;14278;50.784;4.630;2024-03-22T10:03:29;15.00;99.90
26655;DHT22;14278;50.784;4.630;2024-03-22T10:05:56;14.30;99.90
26655;DHT22;14278;50.784;4.630;2024-03-22T10:08:43;14.60;99.90
26655;DHT22;14278;50.784;4.630;2024-03-22T10:11:09;14.40;99.90
26655;DHT22;14278;50.784;4.630;2024-03-22T10:13:35;14.80;99.90
26655;DHT22;14278;50.784;4.630;2024-03-22T10:16:04;14.90;99.90
26655;DHT22;14278;50.784;4.630;2024-03-22T10:25:00;15.30;99.90
26655;DHT22;14278;50.784;4.630;2024-03-22T10:27:29;15.00;99.90
26655;DHT22;14278;50.784;4.630;2024-03-22T10:32:30;15.10;99.90
26655;DHT22;14278;50.784;4.630;2024-03-22T10:34:56;14.60;99.90
26655;DHT22;14278;50.784;4.630;2024-03-22T10:37:23;14.80;99.90
26655;DHT22;14278;50.784;4.630;2024-03-22T10:39:50;15.10;99.90
26655;DHT22;14278;50.784;4.630;2024-03-22T10:42:17;15.40;99.90
26655;DHT22;14278;50.784;4.630;2024-03-22T10:44:44;15.60;99.90
26655;DHT22;14278;50.784;4.630;2024-03-22T10:47:12;15.10;99.90
26655;DHT22;14278;50.784;4.630;2024-03-22T10:49:41;15.20;99.90
26655;DHT22;14278;50.784;4.630;2024-03-22T10:54:45;15.00;99.90
26655;DHT22;14278;50.784;4.630;2024-03-22T10:57:14;14.70;99.90
26655;DHT22;14278;50.784;4.630;2024-03-22T10:59:46;15.20;99.90
26655;DHT22;14278;50.784;4.630;2024-03-22T11:02:12;15.70;99.90
26655;DHT22;14278;50.784;4.630;2024-03-22T11:04:39;15.20;99.90
26655;DHT22;14278;50.784;4.630;2024-03-22T11:07:28;15.00;99.90
26655;DHT22;14278;50.784;4.630;2024-03-22T11:10:01;15.20;99.90
26655;DHT22;14278;50.784;4.630;2024-03-22T11:12:31;15.20;99.90
26655;DHT22;14278;50.784;4.630;2024-03-22T11:20:13;15.70;99.90
26655;DHT22;14278;50.784;4.630;2024-03-22T11:25:26;16.10;99.90
26655;DHT22;14278;50.784;4.630;2024-03-22T11:30:40;15.70;99.90
26655;DHT22;14278;50.784;4.630;2024-03-22T11:33:06;15.80;99.90
26655;DHT22;14278;50.784;4.630;2024-03-22T11:35:33;15.80;99.90
26655;DHT22;14278;50.784;4.630;2024-03-22T11:37:59;16.10;99.90
26655;DHT22;14278;50.784;4.630;2024-03-22T11:40:50;15.60;99.90
26655;DHT22;14278;50.784;4.630;2024-03-22T11:43:16;15.10;99.90
26655;DHT22;14278;50.784;4.630;2024-03-22T11:45:42;15.60;99.90
26655;DHT22;14278;50.784;4.630;2024-03-22T12:02:31;15.80;99.90
26655;DHT22;14278;50.784;4.630;2024-03-22T12:04:57;16.50;99.90
26655;DHT22;14278;50.784;4.630;2024-03-22T12:07:24;15.60;99.90
26655;DHT22;14278;50.784;4.630;2024-03-22T12:09:50;15.20;99.90
26655;DHT22;14278;50.784;4.630;2024-03-22T12:12:17;15.50;99.90
26655;DHT22;14278;50.784;4.630;2024-03-22T12:14:46;15.80;99.90
26655;DHT22;14278;50.784;4.630;2024-03-22T12:17:12;15.70;99.90
26655;DHT22;14278;50.784;4.630;2024-03-22T12:19:38;15.50;99.90
26655;DHT22;14278;50.784;4.630;2024-03-22T12:22:04;15.40;99.90
26655;DHT22;14278;50.784;4.630;2024-03-22T12:24:32;15.90;99.90
26655;DHT22;14278;50.784;4.630;2024-03-22T12:26:57;16.20;99.90
26655;DHT22;14278;50.784;4.630;2024-03-22T12:29:23;16.20;99.90
26655;DHT22;14278;50.784;4.630;2024-03-22T12:31:49;16.00;99.90
26655;DHT22;14278;50.784;4.630;2024-03-22T12:34:15;15.90;99.90
26655;DHT22;14278;50.784;4.630;2024-03-22T12:36:45;15.90;99.90
26655;DHT22;14278;50.784;4.630;2024-03-22T12:39:31;15.60;99.90
26655;DHT22;14278;50.784;4.630;2024-03-22T12:41:57;15.60;99.90
26655;DHT22;14278;50.784;4.630;2024-03-22T12:44:25;15.80;99.90
26655;DHT22;14278;50.784;4.630;2024-03-22T12:46:51;15.90;99.90
26655;DHT22;14278;50.784;4.630;2024-03-22T12:49:17;15.90;99.90
26655;DHT22;14278;50.784;4.630;2024-03-22T12:51:42;15.20;99.90
26655;DHT22;14278;50.784;4.630;2024-03-22T12:54:08;15.40;99.90
26655;DHT22;14278;50.784;4.630;2024-03-22T12:56:34;15.70;99.90
26655;DHT22;14278;50.784;4.630;2024-03-22T12:59:02;15.70;99.90
26655;DHT22;14278;50.784;4.630;2024-03-22T13:01:28;15.70;99.90
26655;DHT22;14278;50.784;4.630;2024-03-22T13:03:54;15.50;99.90
26655;DHT22;14278;50.784;4.630;2024-03-22T13:06:20;15.20;99.90
26655;DHT22;14278;50.784;4.630;2024-03-22T13:08:46;15.70;99.90
26655;DHT22;14278;50.784;4.630;2024-03-22T13:11:12;15.70;99.90
26655;DHT22;14278;50.784;4.630;2024-03-22T13:13:38;15.50;99.90
26655;DHT22;14278;50.784;4.630;2024-03-22T13:16:04;15.40;99.90
26655;DHT22;14278;50.784;4.630;2024-03-22T13:18:30;15.40;99.90
26655;DHT22;14278;50.784;4.630;2024-03-22T13:20:56;15.10;99.90
26655;DHT22;14278;50.784;4.630;2024-03-22T13:23:21;15.50;99.90
26655;DHT22;14278;50.784;4.630;2024-03-22T13:25:47;15.40;99.90
26655;DHT22;14278;50.784;4.630;2024-03-22T13:28:13;15.30;99.90
26655;DHT22;14278;50.784;4.630;2024-03-22T13:30:39;15.50;99.90
26655;DHT22;14278;50.784;4.630;2024-03-22T13:33:05;15.60;99.90
26655;DHT22;14278;50.784;4.630;2024-03-22T13:35:33;15.50;99.90
26655;DHT22;14278;50.784;4.630;2024-03-22T13:37:59;15.10;99.90
26655;DHT22;14278;50.784;4.630;2024-03-22T13:40:26;14.70;99.90
26655;DHT22;14278;50.784;4.630;2024-03-22T13:42:55;15.10;99.90
26655;DHT22;14278;50.784;4.630;2024-03-22T13:45:21;15.20;99.90
26655;DHT22;14278;50.784;4.630;2024-03-22T13:47:46;15.20;99.90
26655;DHT22;14278;50.784;4.630;2024-03-22T13:50:13;14.70;99.90
26655;DHT22;14278;50.784;4.630;2024-03-22T13:52:40;14.70;99.90
26655;DHT22;14278;50.784;4.630;2024-03-22T13:55:06;14.40;99.90
26655;DHT22;14278;50.784;4.630;2024-03-22T13:57:33;14.10;99.90
26655;DHT22;14278;50.784;4.630;2024-03-22T13:59:59;14.20;99.90
26655;DHT22;14278;50.784;4.630;2024-03-22T14:02:25;14.40;99.90
26655;DHT22;14278;50.784;4.630;2024-03-22T14:04:50;14.20;99.90
26655;DHT22;14278;50.784;4.630;2024-03-22T14:07:16;14.20;99.90
26655;DHT22;14278;50.784;4.630;2024-03-22T14:09:43;14.10;99.90
26655;DHT22;14278;50.784;4.630;2024-03-22T14:12:08;14.20;99.90
26655;DHT22;14278;50.784;4.630;2024-03-22T14:14:34;14.30;99.90
26655;DHT22;14278;50.784;4.630;2024-03-22T14:17:01;14.30;99.90
26655;DHT22;14278;50.784;4.630;2024-03-22T14:19:27;14.90;99.90
26655;DHT22;14278;50.784;4.630;2024-03-22T14:21:53;14.60;99.90
26655;DHT22;14278;50.784;4.630;2024-03-22T14:24:19;14.80;99.90
26655;DHT22;14278;50.784;4.630;2024-03-22T14:26:45;14.60;99.90
26655;DHT22;14278;50.784;4.630;2024-03-22T14:29:11;13.80;99.90
26655;DHT22;14278;50.784;4.630;2024-03-22T14:31:38;13.90;99.90
26655;DHT22;14278;50.784;4.630;2024-03-22T14:34:06;13.80;99.90
26655;DHT22;14278;50.784;4.630;2024-03-22T14:36:32;13.60;99.90
26655;DHT22;14278;50.784;4.630;2024-03-22T14:38:58;14.10;99.90
26655;DHT22;14278;50.784;4.630;2024-03-22T14:41:24;14.30;99.90
26655;DHT22;14278;50.784;4.630;2024-03-22T14:43:50;14.80;99.90
26655;DHT22;14278;50.784;4.630;2024-03-22T14:46:16;14.80;99.90
26655;DHT22;14278;50.784;4.630;2024-03-22T14:48:44;15.10;99.90
26655;DHT22;14278;50.784;4.630;2024-03-22T14:51:10;15.00;99.90
26655;DHT22;14278;50.784;4.630;2024-03-22T14:53:35;14.80;99.90
26655;DHT22;14278;50.784;4.630;2024-03-22T14:56:02;14.60;99.90
26655;DHT22;14278;50.784;4.630;2024-03-22T14:58:34;14.90;99.90
26655;DHT22;14278;50.784;4.630;2024-03-22T15:01:01;14.80;99.90
26655;DHT22;14278;50.784;4.630;2024-03-22T15:03:28;14.10;99.90
26655;DHT22;14278;50.784;4.630;2024-03-22T15:05:55;13.90;99.90
26655;DHT22;14278;50.784;4.630;2024-03-22T15:08:22;13.70;99.90
26655;DHT22;14278;50.784;4.630;2024-03-22T15:10:48;13.60;99.90
26655;DHT22;14278;50.784;4.630;2024-03-22T15:13:16;13.60;99.90
26655;DHT22;14278;50.784;4.630;2024-03-22T15:15:42;13.50;99.90
26655;DHT22;14278;50.784;4.630;2024-03-22T15:18:09;13.40;99.90
26655;DHT22;14278;50.784;4.630;2024-03-22T15:20:36;13.60;99.90
26655;DHT22;14278;50.784;4.630;2024-03-22T15:23:12;14.00;99.90
26655;DHT22;14278;50.784;4.630;2024-03-22T15:25:37;13.70;99.90
26655;DHT22;14278;50.784;4.630;2024-03-22T15:28:06;13.60;99.90
26655;DHT22;14278;50.784;4.630;2024-03-22T15:30:32;13.60;99.90
26655;DHT22;14278;50.784;4.630;2024-03-22T15:32:59;13.60;99.90
26655;DHT22;14278;50.784;4.630;2024-03-22T15:35:25;13.40;99.90
26655;DHT22;14278;50.784;4.630;2024-03-22T15:37:51;13.20;99.90
26655;DHT22;14278;50.784;4.630;2024-03-22T15:40:17;13.10;99.90
26655;DHT22;14278;50.784;4.630;2024-03-22T15:42:45;13.10;99.90
26655;DHT22;14278;50.784;4.630;2024-03-22T15:45:10;13.50;99.90
26655;DHT22;14278;50.784;4.630;2024-03-22T15:47:37;13.60;99.90
26655;DHT22;14278;50.784;4.630;2024-03-22T15:50:06;13.70;99.90
26655;DHT22;14278;50.784;4.630;2024-03-22T15:52:32;13.80;99.90
26655;DHT22;14278;50.784;4.630;2024-03-22T15:54:58;14.00;99.90
26655;DHT22;14278;50.784;4.630;2024-03-22T15:57:25;13.50;99.90
26655;DHT22;14278;50.784;4.630;2024-03-22T15:59:51;13.80;99.90
26655;DHT22;14278;50.784;4.630;2024-03-22T16:02:17;13.50;99.90
26655;DHT22;14278;50.784;4.630;2024-03-22T16:04:43;13.30;99.90
26655;DHT22;14278;50.784;4.630;2024-03-22T16:07:10;13.30;99.90
26655;DHT22;14278;50.784;4.630;2024-03-22T16:09:36;13.60;99.90
26655;DHT22;14278;50.784;4.630;2024-03-22T16:12:06;13.70;99.90
26655;DHT22;14278;50.784;4.630;2024-03-22T16:14:32;13.90;99.90
26655;DHT22;14278;50.784;4.630;2024-03-22T16:17:00;14.30;99.90
26655;DHT22;14278;50.784;4.630;2024-03-22T16:19:26;14.30;99.90
26655;DHT22;14278;50.784;4.630;2024-03-22T16:21:51;14.10;99.90
26655;DHT22;14278;50.784;4.630;2024-03-22T16:24:17;14.10;99.90
26655;DHT22;14278;50.784;4.630;2024-03-22T16:26:47;14.10;99.90
26655;DHT22;14278;50.784;4.630;2024-03-22T16:29:13;13.60;99.90
26655;DHT22;14278;50.784;4.630;2024-03-22T16:31:39;14.10;99.90
26655;DHT22;14278;50.784;4.630;2024-03-22T16:34:08;14.00;99.90
26655;DHT22;14278;50.784;4.630;2024-03-22T16:36:34;14.00;99.90
26655;DHT22;14278;50.784;4.630;2024-03-22T16:38:59;13.70;99.90
26655;DHT22;14278;50.784;4.630;2024-03-22T16:41:27;13.50;99.90
26655;DHT22;14278;50.784;4.630;2024-03-22T16:43:53;13.30;99.90
26655;DHT22;14278;50.784;4.630;2024-03-22T16:46:19;13.30;99.90
26655;DHT22;14278;50.784;4.630;2024-03-22T16:48:45;12.60;99.90
26655;DHT22;14278;50.784;4.630;2024-03-22T16:51:11;12.50;99.90
26655;DHT22;14278;50.784;4.630;2024-03-22T16:53:36;12.50;99.90
26655;DHT22;14278;50.784;4.630;2024-03-22T16:56:03;12.60;99.90
26655;DHT22;14278;50.784;4.630;2024-03-22T16:58:28;12.50;99.90
26655;DHT22;14278;50.784;4.630;2024-03-22T17:00:54;12.60;99.90
26655;DHT22;14278;50.784;4.630;2024-03-22T17:03:21;12.30;99.90
26655;DHT22;14278;50.784;4.630;2024-03-22T17:05:46;12.10;99.90
26655;DHT22;14278;50.784;4.630;2024-03-22T17:08:12;11.80;99.90
26655;DHT22;14278;50.784;4.630;2024-03-22T17:10:41;12.10;99.90
26655;DHT22;14278;50.784;4.630;2024-03-22T17:13:07;12.50;99.90
26655;DHT22;14278;50.784;4.630;2024-03-22T17:15:36;12.90;99.90
26655;DHT22;14278;50.784;4.630;2024-03-22T17:18:03;12.60;99.90
26655;DHT22;14278;50.784;4.630;2024-03-22T17:20:29;12.30;99.90
26655;DHT22;14278;50.784;4.630;2024-03-22T17:22:55;12.50;99.90
26655;DHT22;14278;50.784;4.630;2024-03-22T17:25:21;12.70;99.90
26655;DHT22;14278;50.784;4.630;2024-03-22T17:27:48;12.70;99.90
26655;DHT22;14278;50.784;4.630;2024-03-22T17:30:14;12.80;99.90
26655;DHT22;14278;50.784;4.630;2024-03-22T17:32:40;12.90;99.90
26655;DHT22;14278;50.784;4.630;2024-03-22T17:35:05;12.40;99.90
26655;DHT22;14278;50.784;4.630;2024-03-22T17:37:32;12.60;99.90
26655;DHT22;14278;50.784;4.630;2024-03-22T17:39:57;12.30;99.90
26655;DHT22;14278;50.784;4.630;2024-03-22T17:42:23;12.60;99.90
26655;DHT22;14278;50.784;4.630;2024-03-22T17:44:49;12.70;99.90
26655;DHT22;14278;50.784;4.630;2024-03-22T17:47:19;12.70;99.90
26655;DHT22;14278;50.784;4.630;2024-03-22T17:49:48;12.50;99.90
26655;DHT22;14278;50.784;4.630;2024-03-22T17:52:14;12.60;99.90
26655;DHT22;14278;50.784;4.630;2024-03-22T17:54:40;12.50;99.90
26655;DHT22;14278;50.784;4.630;2024-03-22T17:57:06;12.40;99.90
26655;DHT22;14278;50.784;4.630;2024-03-22T17:59:31;12.50;99.90
26655;DHT22;14278;50.784;4.630;2024-03-22T18:01:58;12.40;99.90
26655;DHT22;14278;50.784;4.630;2024-03-22T18:04:26;12.50;99.90
26655;DHT22;14278;50.784;4.630;2024-03-22T18:06:51;12.50;99.90
26655;DHT22;14278;50.784;4.630;2024-03-22T18:09:17;12.70;99.90
26655;DHT22;14278;50.784;4.630;2024-03-22T18:11:43;12.80;99.90
26655;DHT22;14278;50.784;4.630;2024-03-22T18:14:09;12.50;99.90
26655;DHT22;14278;50.784;4.630;2024-03-22T18:16:34;12.80;99.90
26655;DHT22;14278;50.784;4.630;2024-03-22T18:19:02;13.10;99.90
26655;DHT22;14278;50.784;4.630;2024-03-22T18:21:29;12.70;99.90
26655;DHT22;14278;50.784;4.630;2024-03-22T18:23:55;12.40;99.90
26655;DHT22;14278;50.784;4.630;2024-03-22T18:26:21;12.70;99.90
26655;DHT22;14278;50.784;4.630;2024-03-22T18:28:47;13.00;99.90
26655;DHT22;14278;50.784;4.630;2024-03-22T18:31:15;12.10;99.90
26655;DHT22;14278;50.784;4.630;2024-03-22T18:33:49;12.30;99.90
26655;DHT22;14278;50.784;4.630;2024-03-22T18:36:14;12.00;99.90
26655;DHT22;14278;50.784;4.630;2024-03-22T18:38:40;11.90;99.90
26655;DHT22;14278;50.784;4.630;2024-03-22T18:41:06;12.10;99.90
26655;DHT22;14278;50.784;4.630;2024-03-22T18:43:32;12.20;99.90
26655;DHT22;14278;50.784;4.630;2024-03-22T18:46:00;12.30;99.90
26655;DHT22;14278;50.784;4.630;2024-03-22T18:48:26;12.50;99.90
26655;DHT22;14278;50.784;4.630;2024-03-22T18:50:53;12.70;99.90
26655;DHT22;14278;50.784;4.630;2024-03-22T18:53:19;13.00;99.90
26655;DHT22;14278;50.784;4.630;2024-03-22T18:55:44;12.80;99.90
26655;DHT22;14278;50.784;4.630;2024-03-22T18:58:11;12.80;99.90
26655;DHT22;14278;50.784;4.630;2024-03-22T19:00:36;12.70;99.90
26655;DHT22;14278;50.784;4.630;2024-03-22T19:03:03;12.70;99.90
26655;DHT22;14278;50.784;4.630;2024-03-22T19:05:29;12.50;99.90
26655;DHT22;14278;50.784;4.630;2024-03-22T19:07:54;12.70;99.90
26655;DHT22;14278;50.784;4.630;2024-03-22T19:10:21;13.00;99.90
26655;DHT22;14278;50.784;4.630;2024-03-22T19:12:46;13.00;99.90
26655;DHT22;14278;50.784;4.630;2024-03-22T19:15:12;12.90;99.90
26655;DHT22;14278;50.784;4.630;2024-03-22T19:17:38;13.00;99.90
26655;DHT22;14278;50.784;4.630;2024-03-22T19:20:04;12.80;99.90
26655;DHT22;14278;50.784;4.630;2024-03-22T19:22:30;12.60;99.90
26655;DHT22;14278;50.784;4.630;2024-03-22T19:24:56;12.70;99.90
26655;DHT22;14278;50.784;4.630;2024-03-22T19:27:22;12.40;99.90
26655;DHT22;14278;50.784;4.630;2024-03-22T20:00:28;10.80;99.90
26655;DHT22;14278;50.784;4.630;2024-03-22T20:02:53;11.90;99.90
26655;DHT22;14278;50.784;4.630;2024-03-22T20:07:54;12.00;99.90
26655;DHT22;14278;50.784;4.630;2024-03-22T20:13:03;11.80;99.90
26655;DHT22;14278;50.784;4.630;2024-03-22T20:15:29;11.50;99.90
26655;DHT22;14278;50.784;4.630;2024-03-22T20:17:57;11.40;99.90
26655;DHT22;14278;50.784;4.630;2024-03-22T20:25:39;11.80;99.90
26655;DHT22;14278;50.784;4.630;2024-03-22T20:30:40;11.70;99.90
26655;DHT22;14278;50.784;4.630;2024-03-22T20:35:44;11.80;99.90
